Portada
METAR-TAF:

METAR-TAF

Aeroports :

Harrisburg-Raleigh Airport

Harrisburg, Illinois, Estats Units d'Amèrica

latitud: 37-48-41N, longitud: 088-32-57W, altitud: 121 m

Observació

L'informe es va fer fa 6 minuts, a les 13:35 UTC
Vent calma
Temperatura 6°C
Humitat 87%
Pressió 1008 hPa
Visibilitat: 16.1 km
Cel ennuvolat a una alçada de 4300 ft

METAR: KHSB 191335Z AUTO 00000KT 10SM BKN043 06/04 A2978 RMK AO2 T00600043

Hora: 07:41 (13:41 UTC)


TAF: manca

Observacions i pronòstics meteorològics de més de 4000 aeroports (METAR i TAF).

Les estacions disponibles són els punts grocs i vermells al mapa.

Posi el ratolí al punt desitjat per veure el nom de l'estació.

Feu clic per veure les observacions i els pronòstics meteorològics.

Per canviar el mapa: feu clic els botons verds amb una creu de color negre per apropar; al botó verd amb un guió per allunyar la imatge; o en les fletxes verdes per a mapes adjacents.


METAR-TAF: